Time;durP1;ratioP1;P1;durP2;ratioP2;P2;SDS_P1;SDS_P2;PMS_P1;PMS_P2;Temp;Humidity;BMP_temperature;BMP_pressure;BME280_temperature;BME280_humidity;BME280_pressure;Samples;Min_cycle;Max_cycle;Signal;HPM_P1;HPM_P2
2023/04/16 00:02:18;;;;;;;101.47;31.38;;;8.30;99.90;;;;;;5057453;28;20044;-75
2023/04/16 00:04:44;;;;;;;104.07;29.23;;;8.80;99.90;;;;;;5045583;28;20053;-75
2023/04/16 00:07:10;;;;;;;91.70;28.52;;;8.40;99.90;;;;;;5056838;28;20131;-76
2023/04/16 00:09:36;;;;;;;93.97;29.55;;;8.30;99.90;;;;;;5063871;28;20078;-76
2023/04/16 00:12:03;;;;;;;101.35;30.38;;;8.30;99.90;;;;;;5048097;28;20470;-76
2023/04/16 00:14:29;;;;;;;99.53;31.85;;;8.40;99.90;;;;;;5048287;28;20052;-75
2023/04/16 00:16:54;;;;;;;109.07;31.55;;;8.30;99.90;;;;;;5065518;28;20037;-76
2023/04/16 00:19:20;;;;;;;101.70;31.63;;;8.40;99.90;;;;;;5097987;28;20056;-76
2023/04/16 00:21:46;;;;;;;99.18;28.80;;;8.40;99.90;;;;;;5066354;28;20054;-76
2023/04/16 00:24:11;;;;;;;125.38;31.55;;;8.30;99.90;;;;;;5065215;28;20860;-77
2023/04/16 00:26:37;;;;;;;107.65;33.15;;;8.30;99.90;;;;;;5064843;28;20101;-76
2023/04/16 00:29:03;;;;;;;105.03;31.60;;;8.60;99.90;;;;;;5064992;28;20102;-76
2023/04/16 00:31:31;;;;;;;108.47;30.90;;;8.30;99.90;;;;;;5065481;28;20045;-76
2023/04/16 00:33:57;;;;;;;97.97;30.40;;;8.30;99.90;;;;;;5057068;28;20417;-76
2023/04/16 00:36:23;;;;;;;109.18;33.08;;;8.40;99.90;;;;;;5045441;28;20056;-76
2023/04/16 00:38:50;;;;;;;93.22;28.60;;;8.40;99.90;;;;;;5061342;28;20647;-76
2023/04/16 00:41:16;;;;;;;88.00;29.90;;;8.30;99.90;;;;;;5064977;28;20084;-76
2023/04/16 00:43:41;;;;;;;94.45;28.10;;;8.30;99.90;;;;;;5065509;28;20464;-77
2023/04/16 00:46:07;;;;;;;91.20;29.58;;;8.30;99.90;;;;;;5066064;28;20068;-76
2023/04/16 00:48:35;;;;;;;88.57;28.15;;;8.30;99.90;;;;;;5048725;28;20048;-76
2023/04/16 00:51:03;;;;;;;97.57;29.60;;;8.30;99.90;;;;;;5065890;28;20571;-76
2023/04/16 00:53:30;;;;;;;92.15;28.85;;;8.30;99.90;;;;;;5065884;28;20040;-77
2023/04/16 00:55:56;;;;;;;103.28;29.73;;;8.20;99.90;;;;;;5066636;28;20044;-76
2023/04/16 00:58:22;;;;;;;107.00;29.83;;;8.30;99.90;;;;;;5047110;28;20106;-77
2023/04/16 01:00:48;;;;;;;89.05;28.67;;;8.20;99.90;;;;;;5036529;28;20049;-76
2023/04/16 01:03:14;;;;;;;92.35;31.33;;;8.20;99.90;;;;;;5063564;28;20049;-76
2023/04/16 01:05:40;;;;;;;95.68;31.73;;;8.60;99.90;;;;;;5058601;28;20051;-76
2023/04/16 01:08:06;;;;;;;81.95;27.88;;;8.20;99.90;;;;;;5063224;28;20048;-77
2023/04/16 01:10:31;;;;;;;93.53;29.90;;;8.20;99.90;;;;;;5065934;28;20622;-77
2023/04/16 01:12:57;;;;;;;79.57;28.33;;;8.20;99.90;;;;;;5065325;28;20106;-76
2023/04/16 01:15:23;;;;;;;78.85;27.05;;;8.20;99.90;;;;;;5047922;28;20045;-77
2023/04/16 01:17:49;;;;;;;86.63;28.70;;;8.20;99.90;;;;;;5066060;28;20115;-76
2023/04/16 01:20:15;;;;;;;89.65;30.00;;;8.50;99.90;;;;;;5046987;28;20511;-76
2023/04/16 01:22:41;;;;;;;87.65;31.35;;;8.10;99.90;;;;;;5054216;28;20045;-76
2023/04/16 01:25:07;;;;;;;80.22;28.83;;;8.50;99.90;;;;;;5063027;28;20416;-76
2023/04/16 01:27:33;;;;;;;95.47;30.08;;;8.10;99.90;;;;;;5064860;28;20549;-77
2023/04/16 01:29:58;;;;;;;82.65;30.02;;;8.20;99.90;;;;;;5064707;28;20143;-76
2023/04/16 01:32:24;;;;;;;79.55;31.77;;;8.10;99.90;;;;;;5064508;28;20049;-76
2023/04/16 01:34:50;;;;;;;76.35;28.95;;;8.40;99.90;;;;;;5061656;28;20167;-76
2023/04/16 01:37:16;;;;;;;83.55;29.55;;;8.10;99.90;;;;;;5065257;28;20047;-76
2023/04/16 01:39:42;;;;;;;70.65;29.65;;;8.20;99.90;;;;;;5062296;28;20473;-77
2023/04/16 01:42:07;;;;;;;82.53;30.10;;;8.40;99.90;;;;;;5059148;28;20076;-77
2023/04/16 01:44:33;;;;;;;85.95;29.38;;;8.10;99.90;;;;;;5068651;28;20040;-76
2023/04/16 01:46:59;;;;;;;86.15;30.45;;;8.20;99.90;;;;;;5068171;28;20048;-77
2023/04/16 01:49:24;;;;;;;89.25;30.02;;;8.10;99.90;;;;;;5067022;28;20044;-76
2023/04/16 01:51:50;;;;;;;83.22;30.80;;;8.10;99.90;;;;;;5051454;28;20052;-77
2023/04/16 01:54:16;;;;;;;79.95;28.48;;;8.10;99.90;;;;;;5068446;28;20087;-76
2023/04/16 01:56:42;;;;;;;103.85;31.77;;;8.10;99.90;;;;;;5067768;28;20136;-76
2023/04/16 01:59:07;;;;;;;84.65;29.92;;;8.10;99.90;;;;;;5067883;28;20142;-77
2023/04/16 02:01:33;;;;;;;80.75;30.15;;;8.20;99.90;;;;;;5067589;28;20044;-77
2023/04/16 02:03:59;;;;;;;75.90;29.90;;;8.10;99.90;;;;;;5061188;28;20040;-76
2023/04/16 02:06:26;;;;;;;88.80;31.05;;;8.10;99.90;;;;;;5047150;28;20691;-76
2023/04/16 02:08:52;;;;;;;86.80;29.70;;;8.10;99.90;;;;;;5047043;28;20311;-76
2023/04/16 02:11:17;;;;;;;71.45;29.70;;;8.10;99.90;;;;;;5067786;28;20451;-76
2023/04/16 02:13:43;;;;;;;93.72;31.00;;;8.10;99.90;;;;;;5066446;28;20040;-75
2023/04/16 02:16:09;;;;;;;81.60;29.33;;;8.10;99.90;;;;;;5068171;28;20044;-76
2023/04/16 02:18:35;;;;;;;81.80;30.33;;;8.10;99.90;;;;;;5067893;28;20170;-76
2023/04/16 02:21:01;;;;;;;85.28;32.58;;;8.20;99.90;;;;;;5069208;28;20040;-76
2023/04/16 02:23:26;;;;;;;87.93;30.48;;;8.10;99.90;;;;;;5068128;28;20040;-76
2023/04/16 02:25:52;;;;;;;84.15;30.65;;;8.10;99.90;;;;;;5068429;28;20056;-75
2023/04/16 02:28:18;;;;;;;81.45;30.10;;;8.10;99.90;;;;;;5066274;28;20064;-76
2023/04/16 02:30:44;;;;;;;72.15;29.00;;;8.10;99.90;;;;;;5069266;28;20040;-76
2023/04/16 02:33:11;;;;;;;78.95;30.35;;;8.10;99.90;;;;;;5064842;28;20045;-75
2023/04/16 02:35:39;;;;;;;71.85;27.23;;;8.10;99.90;;;;;;5031026;28;20068;-75
2023/04/16 02:38:06;;;;;;;86.45;30.90;;;8.10;99.90;;;;;;5077359;28;20033;-76
2023/04/16 02:40:31;;;;;;;84.05;30.15;;;8.10;99.90;;;;;;5069362;28;20419;-77
2023/04/16 02:42:57;;;;;;;74.70;31.10;;;8.10;99.90;;;;;;5068422;28;20120;-77
2023/04/16 02:45:23;;;;;;;91.45;32.28;;;8.50;99.90;;;;;;5067222;28;20119;-76
2023/04/16 02:47:49;;;;;;;91.80;30.90;;;8.10;99.90;;;;;;5067812;28;20051;-76
2023/04/16 02:50:16;;;;;;;95.85;32.60;;;8.10;99.90;;;;;;5068652;28;20041;-76
2023/04/16 02:52:41;;;;;;;88.45;31.88;;;8.10;99.90;;;;;;5050354;28;20463;-76
2023/04/16 02:55:08;;;;;;;99.68;31.80;;;8.10;99.90;;;;;;5050878;28;20044;-76
2023/04/16 02:57:34;;;;;;;107.25;33.13;;;8.10;99.90;;;;;;5065660;28;20050;-76
2023/04/16 03:00:00;;;;;;;97.78;33.53;;;8.10;99.90;;;;;;5066953;28;20049;-76
2023/04/16 03:02:28;;;;;;;96.70;31.55;;;8.10;99.90;;;;;;5050432;28;20048;-76
2023/04/16 03:04:54;;;;;;;102.40;30.77;;;8.00;99.90;;;;;;5060662;28;20217;-76
2023/04/16 03:07:20;;;;;;;100.40;29.48;;;8.10;99.90;;;;;;5049659;28;20468;-76
2023/04/16 03:09:46;;;;;;;92.28;28.23;;;8.10;99.90;;;;;;5050477;28;20052;-77
2023/04/16 03:12:11;;;;;;;96.57;29.65;;;8.10;99.90;;;;;;5066078;28;20052;-76
2023/04/16 03:14:37;;;;;;;92.45;28.77;;;8.10;99.90;;;;;;5065544;28;20491;-76
2023/04/16 03:17:03;;;;;;;88.75;28.48;;;8.10;99.90;;;;;;5044529;28;20067;-76
2023/04/16 03:19:29;;;;;;;91.20;28.13;;;8.20;99.90;;;;;;5061414;28;20048;-76
2023/04/16 03:21:55;;;;;;;87.05;27.10;;;8.00;99.90;;;;;;5049379;28;20048;-75
2023/04/16 03:24:20;;;;;;;95.38;28.35;;;8.10;99.90;;;;;;5062687;28;20051;-75
2023/04/16 03:26:46;;;;;;;100.97;29.17;;;8.10;99.90;;;;;;5062955;28;20049;-76
2023/04/16 03:29:12;;;;;;;107.72;29.90;;;8.00;99.90;;;;;;5063673;28;20081;-76
2023/04/16 03:31:37;;;;;;;93.88;29.02;;;8.00;99.90;;;;;;5067244;28;20076;-75
2023/04/16 03:34:03;;;;;;;81.70;27.48;;;8.00;99.90;;;;;;5056574;28;20055;-76
2023/04/16 03:36:29;;;;;;;90.72;28.55;;;8.00;99.90;;;;;;5063422;28;20061;-76
2023/04/16 03:38:55;;;;;;;75.80;26.90;;;8.40;99.90;;;;;;5065764;28;20044;-76
2023/04/16 03:41:21;;;;;;;81.65;26.95;;;8.00;99.90;;;;;;5065612;28;20067;-76
2023/04/16 03:43:46;;;;;;;76.88;26.13;;;8.20;99.90;;;;;;5067090;28;20101;-76
2023/04/16 03:46:12;;;;;;;94.47;28.73;;;8.10;99.90;;;;;;5049462;28;20439;-76
2023/04/16 03:48:38;;;;;;;89.40;30.33;;;8.00;99.90;;;;;;5066209;28;20529;-75
2023/04/16 03:51:03;;;;;;;93.90;30.85;;;8.00;99.90;;;;;;5066044;28;20651;-76
2023/04/16 03:53:29;;;;;;;88.05;29.92;;;8.00;99.90;;;;;;5066472;28;20504;-76
2023/04/16 03:55:55;;;;;;;79.55;30.45;;;7.90;99.90;;;;;;5048300;28;20117;-77
2023/04/16 03:58:20;;;;;;;66.50;26.88;;;7.90;99.90;;;;;;5049112;28;20494;-77
2023/04/16 04:00:46;;;;;;;89.45;26.80;;;8.30;99.90;;;;;;5065230;28;20045;-76
2023/04/16 04:03:15;;;;;;;78.78;26.55;;;7.90;99.90;;;;;;5065490;28;20137;-76
2023/04/16 04:05:41;;;;;;;86.53;27.40;;;7.90;99.90;;;;;;5066473;28;20090;-76
2023/04/16 04:08:07;;;;;;;79.75;26.40;;;7.90;99.90;;;;;;5065913;28;20076;-76
2023/04/16 04:10:34;;;;;;;75.47;26.30;;;7.90;99.90;;;;;;5067218;28;20040;-76
2023/04/16 04:13:02;;;;;;;70.07;25.25;;;7.80;99.90;;;;;;5066291;28;20056;-76
2023/04/16 04:15:28;;;;;;;80.30;25.13;;;7.80;99.90;;;;;;5065691;28;20051;-76
2023/04/16 04:17:54;;;;;;;86.60;26.08;;;7.90;99.90;;;;;;5048139;28;20045;-76
2023/04/16 04:20:20;;;;;;;82.65;23.95;;;7.90;99.90;;;;;;5065629;28;20045;-76
2023/04/16 04:22:46;;;;;;;79.78;24.98;;;7.80;99.90;;;;;;5065734;28;20516;-76
2023/04/16 04:25:12;;;;;;;71.82;22.35;;;7.80;99.90;;;;;;5066310;28;20144;-76
2023/04/16 04:27:37;;;;;;;79.35;24.77;;;7.90;99.90;;;;;;5066667;28;20041;-76
2023/04/16 04:30:04;;;;;;;87.88;25.63;;;7.90;99.90;;;;;;5046453;28;20076;-76
2023/04/16 04:32:30;;;;;;;86.72;25.27;;;7.90;99.90;;;;;;5048519;28;20073;-76
2023/04/16 04:34:56;;;;;;;77.30;24.23;;;8.00;99.90;;;;;;5063902;28;20049;-76
2023/04/16 04:37:22;;;;;;;72.43;22.83;;;7.90;99.90;;;;;;5065679;28;20102;-76
2023/04/16 04:39:48;;;;;;;73.03;22.75;;;7.90;99.90;;;;;;5066517;28;20114;-76
2023/04/16 04:42:16;;;;;;;69.20;23.05;;;8.00;99.90;;;;;;5049597;28;20037;-75
2023/04/16 04:44:42;;;;;;;69.95;24.42;;;7.90;99.90;;;;;;5065394;28;20059;-75
2023/04/16 04:47:08;;;;;;;70.25;21.52;;;8.80;99.90;;;;;;5065923;28;20499;-76
2023/04/16 04:49:33;;;;;;;71.57;22.65;;;7.90;99.90;;;;;;5049036;28;20449;-75
2023/04/16 04:52:00;;;;;;;78.47;23.02;;;7.80;99.90;;;;;;5047817;28;20501;-75
2023/04/16 04:54:27;;;;;;;84.75;25.27;;;7.80;99.90;;;;;;5067198;28;20051;-75
2023/04/16 04:56:53;;;;;;;89.70;21.50;;;7.90;99.90;;;;;;5067131;28;20138;-75
2023/04/16 04:59:20;;;;;;;74.93;22.63;;;7.80;99.90;;;;;;5061220;28;20127;-75
2023/04/16 05:01:46;;;;;;;84.90;24.02;;;7.90;99.90;;;;;;5069345;28;20111;-75
2023/04/16 05:04:12;;;;;;;94.07;23.48;;;7.90;99.90;;;;;;5050358;28;20057;-75
2023/04/16 05:06:37;;;;;;;70.72;23.50;;;7.80;99.90;;;;;;5078109;28;21263;-75
2023/04/16 05:09:03;;;;;;;76.95;24.50;;;7.90;99.90;;;;;;5062759;28;20044;-75
2023/04/16 05:11:29;;;;;;;86.82;22.23;;;7.80;99.90;;;;;;5081969;28;20037;-75
2023/04/16 05:13:55;;;;;;;71.07;22.33;;;7.90;99.90;;;;;;5044544;28;20049;-75
2023/04/16 05:16:20;;;;;;;69.22;21.38;;;7.80;99.90;;;;;;5059235;28;20652;-75
2023/04/16 05:18:46;;;;;;;60.72;20.70;;;7.90;99.90;;;;;;5068157;28;20033;-75
2023/04/16 05:21:12;;;;;;;72.57;22.90;;;7.90;99.90;;;;;;5067194;28;20055;-75
2023/04/16 05:23:37;;;;;;;57.33;20.63;;;7.90;99.90;;;;;;5060632;28;20051;-75
2023/04/16 05:26:03;;;;;;;64.05;21.88;;;7.80;99.90;;;;;;5060199;28;20769;-75
2023/04/16 05:28:29;;;;;;;56.88;21.63;;;7.90;99.90;;;;;;5067529;28;20045;-75
2023/04/16 05:30:55;;;;;;;69.30;20.95;;;7.90;99.90;;;;;;5042333;28;20048;-74
2023/04/16 05:33:21;;;;;;;63.35;21.83;;;7.90;99.90;;;;;;5062939;28;20053;-75
2023/04/16 05:35:46;;;;;;;70.93;22.50;;;7.90;99.90;;;;;;5063459;28;20615;-75
2023/04/16 05:38:12;;;;;;;73.82;22.17;;;7.90;99.90;;;;;;5076660;28;20512;-75
2023/04/16 05:40:38;;;;;;;77.57;22.48;;;7.90;99.90;;;;;;5048655;28;20071;-76
2023/04/16 05:43:03;;;;;;;75.15;22.60;;;7.90;99.90;;;;;;5056246;28;20139;-76
2023/04/16 05:45:32;;;;;;;74.13;22.52;;;7.90;99.90;;;;;;5064911;28;20067;-76
2023/04/16 05:47:57;;;;;;;76.90;22.75;;;8.00;99.90;;;;;;5059755;28;20045;-76
2023/04/16 05:50:23;;;;;;;81.60;24.58;;;8.00;99.90;;;;;;5046009;28;20041;-76
2023/04/16 05:52:49;;;;;;;75.30;22.85;;;8.00;99.90;;;;;;5088193;28;20141;-75
2023/04/16 05:55:14;;;;;;;78.18;23.58;;;8.00;99.90;;;;;;5059471;28;20064;-76
2023/04/16 05:57:40;;;;;;;84.57;23.58;;;8.00;99.90;;;;;;5059463;28;20045;-75
2023/04/16 06:00:07;;;;;;;92.90;24.45;;;8.00;99.90;;;;;;5061425;28;20048;-76
2023/04/16 06:02:33;;;;;;;81.00;22.67;;;8.00;99.90;;;;;;5059923;28;20068;-76
2023/04/16 06:04:59;;;;;;;74.63;22.17;;;8.10;99.90;;;;;;5058860;28;20155;-76
2023/04/16 06:07:24;;;;;;;80.45;22.85;;;8.10;99.90;;;;;;5058347;28;20134;-75
2023/04/16 06:09:50;;;;;;;74.38;22.98;;;8.10;99.90;;;;;;5059844;28;20058;-76
2023/04/16 06:12:16;;;;;;;80.22;22.08;;;8.30;99.90;;;;;;5059145;28;20669;-75
2023/04/16 06:14:41;;;;;;;72.57;22.92;;;8.20;99.90;;;;;;5059972;28;20045;-75
2023/04/16 06:17:07;;;;;;;68.57;22.17;;;8.20;99.90;;;;;;5068359;28;20131;-75
2023/04/16 06:19:33;;;;;;;68.32;21.17;;;8.50;99.90;;;;;;5065359;28;20056;-75
2023/04/16 06:21:58;;;;;;;71.68;21.10;;;8.20;99.90;;;;;;5056410;28;20094;-75
2023/04/16 06:24:24;;;;;;;67.03;21.40;;;8.30;99.90;;;;;;5059283;28;20037;-75
2023/04/16 06:26:50;;;;;;;67.63;21.38;;;8.40;99.90;;;;;;5065761;28;20123;-75
2023/04/16 06:29:15;;;;;;;65.05;21.60;;;8.30;99.90;;;;;;5061369;28;20044;-75
2023/04/16 06:31:41;;;;;;;69.93;23.20;;;8.30;99.90;;;;;;5061537;28;20119;-76
2023/04/16 06:34:07;;;;;;;68.55;23.15;;;8.40;99.90;;;;;;5060832;28;20060;-75
2023/04/16 06:36:33;;;;;;;71.20;23.95;;;8.30;99.90;;;;;;5059375;28;20053;-77
2023/04/16 06:38:59;;;;;;;71.18;23.30;;;8.50;99.90;;;;;;5088303;28;20044;-78
2023/04/16 06:41:27;;;;;;;57.60;23.13;;;8.40;99.90;;;;;;5064414;28;20040;-76
2023/04/16 06:43:53;;;;;;;58.40;21.42;;;8.40;99.90;;;;;;5058936;28;20051;-76
2023/04/16 06:46:19;;;;;;;75.78;23.73;;;8.40;99.90;;;;;;5060025;28;20033;-76
2023/04/16 06:48:45;;;;;;;58.28;22.95;;;8.50;99.90;;;;;;5065281;28;20056;-74
2023/04/16 06:51:10;;;;;;;71.78;23.55;;;8.50;99.90;;;;;;5052568;28;20171;-73
2023/04/16 06:53:36;;;;;;;60.88;24.80;;;8.50;99.90;;;;;;5064873;28;20045;-75
2023/04/16 06:56:02;;;;;;;60.60;23.02;;;8.60;99.90;;;;;;5058083;28;20040;-76
2023/04/16 06:58:28;;;;;;;60.97;22.73;;;8.60;99.90;;;;;;5063966;28;20041;-74
2023/04/16 07:00:54;;;;;;;63.75;21.95;;;8.60;99.90;;;;;;5046144;28;20109;-81
2023/04/16 07:03:19;;;;;;;56.10;21.58;;;8.60;99.90;;;;;;5053889;28;20040;-77
2023/04/16 07:05:45;;;;;;;52.20;21.48;;;8.60;99.90;;;;;;5064089;28;20049;-75
2023/04/16 07:08:11;;;;;;;67.05;23.23;;;8.60;99.90;;;;;;5067119;28;20041;-75
2023/04/16 07:10:37;;;;;;;50.78;21.15;;;8.60;99.90;;;;;;5064465;28;20040;-76
2023/04/16 07:13:03;;;;;;;64.15;22.48;;;8.60;99.90;;;;;;5054782;28;20044;-78
2023/04/16 07:15:28;;;;;;;55.38;21.42;;;8.70;99.90;;;;;;5063851;28;20049;-76
2023/04/16 07:17:54;;;;;;;58.90;21.52;;;8.70;99.90;;;;;;5067339;28;20051;-73
2023/04/16 07:20:20;;;;;;;61.60;22.50;;;8.90;99.90;;;;;;5063788;28;20098;-76
2023/04/16 07:22:46;;;;;;;67.03;20.95;;;8.90;99.90;;;;;;5048630;28;20048;-72
2023/04/16 07:25:11;;;;;;;58.53;20.92;;;9.00;99.90;;;;;;5056980;28;20041;-75
2023/04/16 07:27:37;;;;;;;61.40;21.85;;;9.10;99.90;;;;;;5063840;28;20055;-74
2023/04/16 07:30:03;;;;;;;68.00;23.50;;;9.10;99.90;;;;;;5061927;28;20063;-72
2023/04/16 07:32:29;;;;;;;101.65;24.52;;;9.10;99.90;;;;;;5048939;28;20039;-81
2023/04/16 07:34:55;;;;;;;50.67;20.55;;;9.20;99.90;;;;;;5063989;28;20036;-76
2023/04/16 07:37:21;;;;;;;66.55;21.42;;;9.30;99.90;;;;;;5065736;28;20583;-77
2023/04/16 07:39:47;;;;;;;53.15;21.52;;;9.30;99.90;;;;;;5060498;28;20083;-81
2023/04/16 07:42:13;;;;;;;54.03;19.80;;;9.40;99.90;;;;;;5065844;28;20041;-82
2023/04/16 07:44:39;;;;;;;53.63;20.02;;;9.40;99.90;;;;;;5050512;28;20105;-82
2023/04/16 07:47:05;;;;;;;59.03;19.23;;;9.40;99.90;;;;;;5046469;28;20068;-82
2023/04/16 07:49:30;;;;;;;52.78;19.75;;;9.40;99.90;;;;;;5028679;28;20036;-82
2023/04/16 07:51:56;;;;;;;52.63;17.92;;;9.50;99.90;;;;;;5049803;28;20044;-83
2023/04/16 07:54:22;;;;;;;54.50;19.80;;;9.50;99.90;;;;;;5042556;28;20683;-82
2023/04/16 07:56:48;;;;;;;47.97;19.52;;;9.50;99.90;;;;;;5041229;28;20080;-81
2023/04/16 07:59:13;;;;;;;46.72;18.95;;;9.60;99.90;;;;;;5044204;28;20094;-81
2023/04/16 08:01:39;;;;;;;52.85;18.80;;;9.60;99.90;;;;;;5042960;28;20080;-82
2023/04/16 08:04:05;;;;;;;46.65;19.48;;;9.70;99.90;;;;;;5040187;28;20516;-82
2023/04/16 08:06:31;;;;;;;43.47;18.25;;;9.70;99.90;;;;;;5041402;28;20059;-84
2023/04/16 08:08:57;;;;;;;46.80;18.38;;;9.80;99.90;;;;;;5041133;28;20052;-83
2023/04/16 08:11:26;;;;;;;41.47;17.23;;;9.90;99.90;;;;;;5028579;28;20044;-83
2023/04/16 08:13:52;;;;;;;46.97;18.17;;;10.00;99.90;;;;;;5042584;28;20599;-82
2023/04/16 08:16:17;;;;;;;54.00;17.63;;;10.10;99.90;;;;;;5048605;28;20128;-82
2023/04/16 08:18:43;;;;;;;39.30;17.70;;;10.20;99.90;;;;;;5039917;28;20126;-81
2023/04/16 08:21:09;;;;;;;36.90;17.15;;;10.30;99.90;;;;;;5071516;27;20131;-82
2023/04/16 08:23:37;;;;;;;47.60;18.17;;;10.40;99.90;;;;;;5046192;28;20037;-82
2023/04/16 08:26:03;;;;;;;35.90;16.65;;;10.50;99.90;;;;;;5074487;28;20048;-82
2023/04/16 08:28:29;;;;;;;35.63;16.25;;;10.50;99.90;;;;;;5044835;28;20512;-81
2023/04/16 08:30:55;;;;;;;39.45;16.35;;;10.60;99.90;;;;;;5038485;28;20143;-82
2023/04/16 08:33:21;;;;;;;41.47;16.50;;;10.60;99.90;;;;;;5041061;28;20094;-81
2023/04/16 08:35:46;;;;;;;44.08;17.67;;;10.60;99.90;;;;;;5074294;28;20458;-81
2023/04/16 08:38:12;;;;;;;44.22;16.90;;;10.70;99.90;;;;;;5043592;28;20040;-81
2023/04/16 08:40:40;;;;;;;44.60;16.60;;;10.70;99.90;;;;;;5053175;28;20051;-81
2023/04/16 08:43:11;;;;;;;43.63;16.42;;;10.80;99.90;;;;;;5045246;28;20143;-82
2023/04/16 08:45:39;;;;;;;46.63;17.30;;;10.80;99.90;;;;;;5050637;28;20102;-81
2023/04/16 08:48:05;;;;;;;43.58;16.83;;;10.80;99.90;;;;;;5049442;28;20413;-81
2023/04/16 08:50:33;;;;;;;37.67;16.33;;;10.90;99.90;;;;;;5041037;28;20752;-82
2023/04/16 08:53:05;;;;;;;39.53;16.48;;;11.00;99.90;;;;;;5059354;28;20040;-81
2023/04/16 08:55:39;;;;;;;45.08;17.60;;;11.00;99.90;;;;;;5058773;28;20127;-82
2023/04/16 08:58:14;;;;;;;39.75;16.50;;;11.10;99.90;;;;;;5059651;28;20087;-82
2023/04/16 09:00:42;;;;;;;36.80;15.85;;;11.10;99.90;;;;;;5057384;28;20045;-82
2023/04/16 09:03:11;;;;;;;34.25;15.75;;;11.20;99.90;;;;;;5043747;28;20071;-82
2023/04/16 09:05:37;;;;;;;38.20;15.90;;;11.20;99.90;;;;;;5056386;28;20395;-81
2023/04/16 09:08:07;;;;;;;40.95;16.35;;;11.30;99.90;;;;;;5045082;28;20040;-82
2023/04/16 09:10:34;;;;;;;37.72;15.43;;;11.30;99.90;;;;;;5056509;28;20039;-82
2023/04/16 09:13:00;;;;;;;44.15;16.20;;;11.30;99.90;;;;;;5064533;28;20036;-83
2023/04/16 09:15:26;;;;;;;38.70;16.05;;;11.40;99.90;;;;;;5067414;28;20039;-83
2023/04/16 09:17:52;;;;;;;38.45;15.85;;;11.40;99.90;;;;;;5050963;28;20048;-83
2023/04/16 09:20:19;;;;;;;38.30;15.52;;;11.50;99.90;;;;;;5059860;28;20044;-81
2023/04/16 09:22:45;;;;;;;41.00;15.65;;;11.50;99.90;;;;;;5071949;28;20052;-83
2023/04/16 09:25:11;;;;;;;31.80;14.95;;;11.60;99.90;;;;;;5063936;28;20036;-83
2023/04/16 09:27:38;;;;;;;35.38;15.60;;;11.60;99.90;;;;;;5060835;28;20048;-83
2023/04/16 09:30:23;;;;;;;39.60;15.13;;;11.60;99.90;;;;;;5047380;28;20405;-83
2023/04/16 09:32:50;;;;;;;42.45;15.55;;;11.70;99.90;;;;;;5040348;28;20052;-82
2023/04/16 09:35:20;;;;;;;35.42;16.00;;;11.70;99.90;;;;;;5058896;28;20501;-82
2023/04/16 09:37:56;;;;;;;36.35;16.55;;;11.70;99.90;;;;;;5055540;28;20044;-82
2023/04/16 09:40:29;;;;;;;37.13;14.88;;;11.70;99.90;;;;;;5066449;28;20148;-81
2023/04/16 09:42:59;;;;;;;41.67;15.57;;;11.70;99.90;;;;;;5040507;28;20041;-82
2023/04/16 09:45:30;;;;;;;40.50;16.47;;;11.70;99.90;;;;;;5051386;28;20091;-83
2023/04/16 09:48:03;;;;;;;34.30;15.32;;;11.70;99.90;;;;;;5078403;28;20309;-83
2023/04/16 09:50:29;;;;;;;41.65;15.73;;;11.80;99.90;;;;;;5031412;28;20044;-79
2023/04/16 09:52:55;;;;;;;33.53;14.82;;;11.80;99.90;;;;;;5045453;28;20074;-80
2023/04/16 09:55:26;;;;;;;33.60;15.65;;;11.80;99.90;;;;;;5037462;28;20040;-79
2023/04/16 09:58:01;;;;;;;36.58;15.88;;;11.90;99.90;;;;;;5049307;28;20041;-78
2023/04/16 10:00:30;;;;;;;34.60;15.35;;;11.90;99.90;;;;;;5039392;28;20144;-79
2023/04/16 10:03:05;;;;;;;33.85;16.15;;;11.90;99.90;;;;;;5067330;28;20052;-80
2023/04/16 10:05:31;;;;;;;32.63;15.30;;;11.90;99.90;;;;;;5053882;28;20056;-77
2023/04/16 10:08:00;;;;;;;39.13;16.20;;;11.90;99.90;;;;;;5040964;28;20049;-77
2023/04/16 10:10:27;;;;;;;36.00;17.10;;;12.00;99.90;;;;;;5033342;28;20048;-79
2023/04/16 10:12:54;;;;;;;43.08;16.45;;;12.10;99.90;;;;;;5051369;28;20221;-78
2023/04/16 10:15:21;;;;;;;38.10;16.50;;;12.00;99.90;;;;;;5057234;28;20048;-78
2023/04/16 10:17:47;;;;;;;34.97;15.82;;;12.00;99.90;;;;;;5050465;28;20045;-79
2023/04/16 10:20:15;;;;;;;27.40;15.02;;;12.00;99.90;;;;;;5059359;28;20714;-78
2023/04/16 10:22:41;;;;;;;31.63;15.55;;;12.00;99.90;;;;;;5037711;28;20467;-80
2023/04/16 10:25:07;;;;;;;33.70;16.20;;;12.00;99.90;;;;;;5089208;28;20071;-79
2023/04/16 10:27:35;;;;;;;32.50;14.55;;;12.00;99.90;;;;;;5049845;28;20045;-79
2023/04/16 10:30:02;;;;;;;29.60;15.05;;;12.00;99.90;;;;;;5055558;28;20075;-79
2023/04/16 10:32:30;;;;;;;37.13;16.70;;;12.00;99.90;;;;;;5056053;28;20056;-78
2023/04/16 10:34:57;;;;;;;39.78;17.75;;;12.00;99.90;;;;;;5055891;28;20503;-79
2023/04/16 10:37:32;;;;;;;31.73;15.82;;;12.00;99.90;;;;;;5048798;28;20170;-79
2023/04/16 10:39:58;;;;;;;33.42;15.05;;;11.90;99.90;;;;;;5055709;28;20046;-78
2023/04/16 10:42:24;;;;;;;40.58;16.92;;;11.90;99.90;;;;;;5049349;28;20407;-78
2023/04/16 10:44:50;;;;;;;33.90;14.95;;;11.90;99.90;;;;;;5037014;28;20041;-78
2023/04/16 10:47:16;;;;;;;40.88;15.50;;;11.80;99.90;;;;;;5050305;28;20047;-78
2023/04/16 10:49:42;;;;;;;36.40;16.17;;;12.00;99.90;;;;;;5054876;28;20048;-78
2023/04/16 10:52:13;;;;;;;36.83;15.32;;;11.80;99.90;;;;;;5052630;28;20097;-78
2023/04/16 10:54:40;;;;;;;38.80;16.08;;;11.80;99.90;;;;;;5031237;28;20044;-78
2023/04/16 10:57:08;;;;;;;47.58;16.60;;;11.80;99.90;;;;;;5032606;28;20397;-80
2023/04/16 10:59:36;;;;;;;39.70;18.42;;;11.70;99.90;;;;;;5050308;28;20051;-78
2023/04/16 11:02:13;;;;;;;36.25;16.92;;;11.80;99.90;;;;;;5082353;28;20049;-78
2023/04/16 11:04:42;;;;;;;37.25;17.25;;;11.60;99.90;;;;;;5054744;28;20036;-79
2023/04/16 11:07:13;;;;;;;35.00;16.70;;;11.60;99.90;;;;;;5051724;28;20045;-77
2023/04/16 11:10:01;;;;;;;39.28;17.67;;;11.70;99.90;;;;;;5062371;28;20040;-78
2023/04/16 11:12:48;;;;;;;33.10;16.20;;;11.50;99.90;;;;;;5054837;28;20053;-78
2023/04/16 11:15:15;;;;;;;32.97;16.25;;;11.40;99.90;;;;;;5048294;28;20037;-78
2023/04/16 11:17:43;;;;;;;37.40;18.38;;;11.40;99.90;;;;;;5035500;28;20465;-77
2023/04/16 11:20:16;;;;;;;34.22;16.70;;;11.30;99.90;;;;;;5044288;28;20044;-78
2023/04/16 11:22:44;;;;;;;35.53;16.45;;;11.30;99.90;;;;;;5047888;28;20124;-76
2023/04/16 11:25:10;;;;;;;31.33;16.50;;;11.20;99.90;;;;;;5049500;28;20045;-76
2023/04/16 11:27:35;;;;;;;39.03;17.48;;;11.20;99.90;;;;;;5049267;28;20174;-76
2023/04/16 11:30:11;;;;;;;41.95;16.88;;;11.10;99.90;;;;;;5051007;28;20124;-77
2023/04/16 11:32:38;;;;;;;34.53;16.00;;;11.10;99.90;;;;;;5048149;28;20084;-77
2023/04/16 11:35:16;;;;;;;36.20;15.77;;;11.20;99.90;;;;;;5056975;28;20576;-78
2023/04/16 11:37:42;;;;;;;42.28;17.63;;;11.20;99.90;;;;;;5053066;28;20048;-77
2023/04/16 11:40:09;;;;;;;42.47;18.33;;;11.30;99.90;;;;;;5051886;28;20998;-77
2023/04/16 11:42:42;;;;;;;39.97;17.58;;;11.30;99.90;;;;;;5031644;28;20072;-76
2023/04/16 11:45:09;;;;;;;43.58;19.00;;;11.30;99.90;;;;;;5042007;28;20051;-76
2023/04/16 11:47:54;;;;;;;38.92;18.05;;;11.40;99.90;;;;;;5046760;28;20083;-75
2023/04/16 11:50:21;;;;;;;41.67;18.08;;;11.40;99.90;;;;;;5074373;28;20041;-78
2023/04/16 11:52:47;;;;;;;37.42;17.80;;;11.50;99.90;;;;;;5054008;28;20049;-76
2023/04/16 11:55:13;;;;;;;33.42;16.30;;;11.50;99.90;;;;;;5045397;28;20048;-77
2023/04/16 11:57:39;;;;;;;41.70;18.38;;;11.50;99.90;;;;;;5054227;28;20040;-77
2023/04/16 12:00:12;;;;;;;43.35;18.25;;;11.50;99.90;;;;;;5049501;28;20075;-77
2023/04/16 12:02:42;;;;;;;35.70;17.88;;;11.60;99.90;;;;;;5039509;28;20077;-79
2023/04/16 12:05:30;;;;;;;33.50;18.13;;;11.60;99.90;;;;;;5049472;28;20466;-78
2023/04/16 12:07:56;;;;;;;33.53;17.60;;;11.70;99.90;;;;;;5048997;28;20040;-76
2023/04/16 12:10:24;;;;;;;37.30;19.05;;;11.70;99.90;;;;;;5040142;28;20204;-77
2023/04/16 12:12:49;;;;;;;32.35;17.95;;;11.70;99.90;;;;;;5051191;28;20047;-78
2023/04/16 12:15:15;;;;;;;35.72;18.10;;;11.80;99.90;;;;;;5046971;28;20041;-76
2023/04/16 12:17:41;;;;;;;34.17;18.25;;;11.90;99.90;;;;;;5055949;28;20173;-77
2023/04/16 12:20:12;;;;;;;37.78;17.77;;;12.00;99.90;;;;;;5055535;28;20090;-76
2023/04/16 12:22:46;;;;;;;;;;;11.90;99.90;;;;;;5033189;28;20040;-75
2023/04/16 12:25:15;;;;;;;34.13;16.27;;;12.00;99.90;;;;;;5049421;28;20634;-76
2023/04/16 12:27:46;;;;;;;38.03;16.85;;;12.00;99.90;;;;;;5078292;28;20057;-75
2023/04/16 12:30:14;;;;;;;36.67;17.15;;;12.10;99.90;;;;;;5042053;28;20048;-74
2023/04/16 12:32:42;;;;;;;27.17;16.67;;;12.10;99.90;;;;;;5035899;28;20126;-75